sensor_id;sensor_type;location;lat;lon;timestamp;pressure;altitude;pressure_sealevel;temperature;humidity
51926;BME280;37952;51.938;15.480;2023-06-05T00:00:28;100383.21;;;20.32;26.54
51926;BME280;37952;51.938;15.480;2023-06-05T00:03:51;100384.99;;;20.24;26.63
51926;BME280;37952;51.938;15.480;2023-06-05T00:06:56;100379.40;;;20.18;26.74
51926;BME280;37952;51.938;15.480;2023-06-05T00:09:59;100379.55;;;20.19;26.77
51926;BME280;37952;51.938;15.480;2023-06-05T00:13:03;100379.52;;;20.15;26.66
51926;BME280;37952;51.938;15.480;2023-06-05T00:16:05;100383.39;;;20.08;26.95
51926;BME280;37952;51.938;15.480;2023-06-05T00:19:09;100380.73;;;20.06;26.83
51926;BME280;37952;51.938;15.480;2023-06-05T00:22:12;100382.42;;;20.05;26.86
51926;BME280;37952;51.938;15.480;2023-06-05T00:25:14;100380.77;;;20.06;27.01
51926;BME280;37952;51.938;15.480;2023-06-05T00:28:17;100381.73;;;20.05;26.88
51926;BME280;37952;51.938;15.480;2023-06-05T00:31:20;100384.39;;;20.03;27.01
51926;BME280;37952;51.938;15.480;2023-06-05T00:34:24;100382.79;;;19.98;26.95
51926;BME280;37952;51.938;15.480;2023-06-05T00:37:27;100381.28;;;19.93;27.07
51926;BME280;37952;51.938;15.480;2023-06-05T00:40:29;100380.96;;;19.89;27.14
51926;BME280;37952;51.938;15.480;2023-06-05T00:43:32;100382.79;;;19.84;27.25
51926;BME280;37952;51.938;15.480;2023-06-05T00:46:35;100379.27;;;19.80;27.21
51926;BME280;37952;51.938;15.480;2023-06-05T00:49:38;100380.07;;;19.75;27.48
51926;BME280;37952;51.938;15.480;2023-06-05T00:52:42;100382.24;;;19.72;27.29
51926;BME280;37952;51.938;15.480;2023-06-05T00:55:45;100381.45;;;19.63;27.34
51926;BME280;37952;51.938;15.480;2023-06-05T00:58:48;100381.80;;;19.49;27.71
51926;BME280;37952;51.938;15.480;2023-06-05T01:01:51;100372.31;;;19.33;28.27
51926;BME280;37952;51.938;15.480;2023-06-05T01:04:55;100380.20;;;19.24;28.77
51926;BME280;37952;51.938;15.480;2023-06-05T01:07:59;100382.55;;;19.03;29.07
51926;BME280;37952;51.938;15.480;2023-06-05T01:11:16;100382.05;;;18.83;29.31
51926;BME280;37952;51.938;15.480;2023-06-05T01:14:22;100383.73;;;18.78;29.70
51926;BME280;37952;51.938;15.480;2023-06-05T01:17:27;100380.90;;;18.70;30.01
51926;BME280;37952;51.938;15.480;2023-06-05T01:20:37;100379.08;;;18.64;30.05
51926;BME280;37952;51.938;15.480;2023-06-05T01:23:42;100379.31;;;18.61;30.24
51926;BME280;37952;51.938;15.480;2023-06-05T01:27:15;100377.65;;;18.57;30.27
51926;BME280;37952;51.938;15.480;2023-06-05T01:33:32;100373.79;;;18.35;30.37
51926;BME280;37952;51.938;15.480;2023-06-05T01:36:47;100376.05;;;18.25;30.88
51926;BME280;37952;51.938;15.480;2023-06-05T01:39:51;100373.14;;;18.14;31.08
51926;BME280;37952;51.938;15.480;2023-06-05T01:42:56;100377.05;;;18.12;31.20
51926;BME280;37952;51.938;15.480;2023-06-05T01:46:00;100376.36;;;18.08;31.45
51926;BME280;37952;51.938;15.480;2023-06-05T01:49:03;100375.36;;;18.04;31.46
51926;BME280;37952;51.938;15.480;2023-06-05T01:52:08;100372.00;;;17.97;31.45
51926;BME280;37952;51.938;15.480;2023-06-05T01:55:17;100374.05;;;17.90;31.71
51926;BME280;37952;51.938;15.480;2023-06-05T01:58:21;100369.79;;;17.83;31.84
51926;BME280;37952;51.938;15.480;2023-06-05T02:01:24;100365.73;;;17.73;31.77
51926;BME280;37952;51.938;15.480;2023-06-05T02:04:27;100361.52;;;17.66;31.88
51926;BME280;37952;51.938;15.480;2023-06-05T02:07:32;100362.86;;;17.56;32.17
51926;BME280;37952;51.938;15.480;2023-06-05T02:10:36;100356.70;;;17.48;32.22
51926;BME280;37952;51.938;15.480;2023-06-05T02:13:40;100356.13;;;17.49;32.27
51926;BME280;37952;51.938;15.480;2023-06-05T02:16:43;100351.36;;;17.43;32.18
51926;BME280;37952;51.938;15.480;2023-06-05T02:19:45;100352.31;;;17.31;32.37
51926;BME280;37952;51.938;15.480;2023-06-05T02:22:48;100349.60;;;17.35;32.57
51926;BME280;37952;51.938;15.480;2023-06-05T02:25:55;100348.45;;;17.33;32.64
51926;BME280;37952;51.938;15.480;2023-06-05T02:28:58;100342.89;;;17.31;32.67
51926;BME280;37952;51.938;15.480;2023-06-05T02:32:01;100340.92;;;17.29;32.60
51926;BME280;37952;51.938;15.480;2023-06-05T02:35:04;100336.95;;;17.30;32.67
51926;BME280;37952;51.938;15.480;2023-06-05T02:38:08;100336.05;;;17.30;32.83
51926;BME280;37952;51.938;15.480;2023-06-05T02:41:12;100340.00;;;17.29;32.92
51926;BME280;37952;51.938;15.480;2023-06-05T02:44:15;100338.04;;;17.25;32.95
51926;BME280;37952;51.938;15.480;2023-06-05T02:47:18;100339.73;;;17.24;32.94
51926;BME280;37952;51.938;15.480;2023-06-05T02:50:21;100341.15;;;17.22;33.09
51926;BME280;37952;51.938;15.480;2023-06-05T02:53:23;100338.25;;;17.22;32.97
51926;BME280;37952;51.938;15.480;2023-06-05T02:56:26;100338.24;;;17.18;32.91
51926;BME280;37952;51.938;15.480;2023-06-05T02:59:29;100338.41;;;17.14;33.10
51926;BME280;37952;51.938;15.480;2023-06-05T03:02:34;100340.92;;;17.08;33.29
51926;BME280;37952;51.938;15.480;2023-06-05T03:05:38;100339.09;;;17.06;33.34
51926;BME280;37952;51.938;15.480;2023-06-05T03:08:44;100337.35;;;17.09;33.36
51926;BME280;37952;51.938;15.480;2023-06-05T03:11:46;100338.55;;;17.07;33.46
51926;BME280;37952;51.938;15.480;2023-06-05T03:14:49;100335.98;;;17.05;33.53
51926;BME280;37952;51.938;15.480;2023-06-05T03:17:52;100335.69;;;16.95;33.71
51926;BME280;37952;51.938;15.480;2023-06-05T03:20:55;100337.95;;;16.94;33.96
51926;BME280;37952;51.938;15.480;2023-06-05T03:23:58;100336.48;;;16.92;34.11
51926;BME280;37952;51.938;15.480;2023-06-05T03:27:01;100336.07;;;16.86;34.30
51926;BME280;37952;51.938;15.480;2023-06-05T03:30:04;100334.73;;;16.87;34.50
51926;BME280;37952;51.938;15.480;2023-06-05T03:33:07;100333.66;;;16.82;34.82
51926;BME280;37952;51.938;15.480;2023-06-05T03:36:16;100333.45;;;16.88;34.92
51926;BME280;37952;51.938;15.480;2023-06-05T03:39:20;100334.15;;;16.88;35.03
51926;BME280;37952;51.938;15.480;2023-06-05T03:42:23;100333.25;;;16.81;35.00
51926;BME280;37952;51.938;15.480;2023-06-05T03:45:26;100332.73;;;16.80;35.11
51926;BME280;37952;51.938;15.480;2023-06-05T03:48:30;100336.63;;;16.86;35.30
51926;BME280;37952;51.938;15.480;2023-06-05T03:51:32;100340.95;;;16.89;35.36
51926;BME280;37952;51.938;15.480;2023-06-05T03:54:35;100341.88;;;16.91;35.68
51926;BME280;37952;51.938;15.480;2023-06-05T03:57:38;100341.87;;;16.91;35.51
51926;BME280;37952;51.938;15.480;2023-06-05T04:00:42;100342.27;;;16.91;35.62
51926;BME280;37952;51.938;15.480;2023-06-05T04:03:45;100341.23;;;16.95;35.42
51926;BME280;37952;51.938;15.480;2023-06-05T04:06:48;100344.16;;;17.01;35.57
51926;BME280;37952;51.938;15.480;2023-06-05T04:09:51;100339.88;;;17.05;35.66
51926;BME280;37952;51.938;15.480;2023-06-05T04:12:54;100339.11;;;17.11;35.69
51926;BME280;37952;51.938;15.480;2023-06-05T04:15:57;100343.86;;;17.14;35.44
51926;BME280;37952;51.938;15.480;2023-06-05T04:19:00;100340.19;;;17.14;35.71
51926;BME280;37952;51.938;15.480;2023-06-05T04:22:03;100338.70;;;17.14;35.90
51926;BME280;37952;51.938;15.480;2023-06-05T04:25:06;100338.64;;;17.20;36.08
51926;BME280;37952;51.938;15.480;2023-06-05T04:28:09;100342.11;;;17.23;36.10
51926;BME280;37952;51.938;15.480;2023-06-05T04:31:12;100345.55;;;17.27;36.34
51926;BME280;37952;51.938;15.480;2023-06-05T04:34:15;100343.89;;;17.30;36.36
51926;BME280;37952;51.938;15.480;2023-06-05T04:37:21;100345.76;;;17.33;36.34
51926;BME280;37952;51.938;15.480;2023-06-05T04:40:23;100348.66;;;17.35;36.40
51926;BME280;37952;51.938;15.480;2023-06-05T04:43:26;100346.52;;;17.35;36.40
51926;BME280;37952;51.938;15.480;2023-06-05T04:46:29;100350.71;;;17.36;36.50
51926;BME280;37952;51.938;15.480;2023-06-05T04:49:32;100346.06;;;17.38;36.41
51926;BME280;37952;51.938;15.480;2023-06-05T04:52:35;100343.95;;;17.38;36.36
51926;BME280;37952;51.938;15.480;2023-06-05T04:55:37;100341.25;;;17.39;36.55
51926;BME280;37952;51.938;15.480;2023-06-05T04:58:40;100344.33;;;17.40;36.67
51926;BME280;37952;51.938;15.480;2023-06-05T05:01:44;100347.06;;;17.41;36.61
51926;BME280;37952;51.938;15.480;2023-06-05T05:04:47;100348.67;;;17.41;36.54
51926;BME280;37952;51.938;15.480;2023-06-05T05:07:49;100345.90;;;17.45;36.70
51926;BME280;37952;51.938;15.480;2023-06-05T05:10:52;100346.83;;;17.51;36.73
51926;BME280;37952;51.938;15.480;2023-06-05T05:13:55;100346.33;;;17.53;36.60
51926;BME280;37952;51.938;15.480;2023-06-05T05:16:57;100349.25;;;17.54;36.67
51926;BME280;37952;51.938;15.480;2023-06-05T05:20:00;100346.14;;;17.58;36.74
51926;BME280;37952;51.938;15.480;2023-06-05T05:23:03;100352.50;;;17.63;36.93
51926;BME280;37952;51.938;15.480;2023-06-05T05:26:06;100354.95;;;17.68;36.88
51926;BME280;37952;51.938;15.480;2023-06-05T05:29:09;100356.60;;;17.72;36.78
51926;BME280;37952;51.938;15.480;2023-06-05T05:32:12;100351.59;;;17.72;37.17
51926;BME280;37952;51.938;15.480;2023-06-05T05:35:15;100356.79;;;17.76;37.08
51926;BME280;37952;51.938;15.480;2023-06-05T05:38:18;100356.71;;;17.77;36.90
51926;BME280;37952;51.938;15.480;2023-06-05T05:41:21;100360.52;;;17.70;37.08
51926;BME280;37952;51.938;15.480;2023-06-05T05:44:24;100361.09;;;17.65;37.02
51926;BME280;37952;51.938;15.480;2023-06-05T05:47:27;100363.36;;;17.67;37.36
51926;BME280;37952;51.938;15.480;2023-06-05T05:50:29;100367.21;;;17.75;37.37
51926;BME280;37952;51.938;15.480;2023-06-05T05:53:33;100368.30;;;17.79;37.15
51926;BME280;37952;51.938;15.480;2023-06-05T05:56:35;100368.35;;;17.85;36.94
51926;BME280;37952;51.938;15.480;2023-06-05T05:59:40;100366.51;;;17.93;36.68
51926;BME280;37952;51.938;15.480;2023-06-05T06:02:44;100367.39;;;17.99;36.63
51926;BME280;37952;51.938;15.480;2023-06-05T06:05:48;100371.60;;;18.04;36.60
51926;BME280;37952;51.938;15.480;2023-06-05T06:08:51;100371.89;;;18.10;36.53
51926;BME280;37952;51.938;15.480;2023-06-05T06:11:54;100373.40;;;18.13;36.36
51926;BME280;37952;51.938;15.480;2023-06-05T06:14:58;100372.14;;;18.18;36.37
51926;BME280;37952;51.938;15.480;2023-06-05T06:18:01;100373.40;;;18.22;36.15
51926;BME280;37952;51.938;15.480;2023-06-05T06:21:05;100376.44;;;18.24;36.03
51926;BME280;37952;51.938;15.480;2023-06-05T06:24:08;100377.49;;;18.27;35.99
51926;BME280;37952;51.938;15.480;2023-06-05T06:27:12;100376.77;;;18.31;36.12
51926;BME280;37952;51.938;15.480;2023-06-05T06:30:18;100373.94;;;18.35;35.99
51926;BME280;37952;51.938;15.480;2023-06-05T06:33:21;100375.95;;;18.41;35.89
51926;BME280;37952;51.938;15.480;2023-06-05T06:36:25;100376.11;;;18.45;36.05
51926;BME280;37952;51.938;15.480;2023-06-05T06:39:29;100377.20;;;18.52;36.08
51926;BME280;37952;51.938;15.480;2023-06-05T06:42:32;100375.05;;;18.56;36.11
51926;BME280;37952;51.938;15.480;2023-06-05T06:45:35;100378.64;;;18.60;36.15
51926;BME280;37952;51.938;15.480;2023-06-05T06:48:38;100381.42;;;18.63;36.06
51926;BME280;37952;51.938;15.480;2023-06-05T06:51:41;100383.20;;;18.65;36.09
51926;BME280;37952;51.938;15.480;2023-06-05T06:54:44;100381.95;;;18.67;36.18
51926;BME280;37952;51.938;15.480;2023-06-05T06:57:49;100380.04;;;18.71;36.10
51926;BME280;37952;51.938;15.480;2023-06-05T07:00:51;100380.08;;;18.73;35.86
51926;BME280;37952;51.938;15.480;2023-06-05T07:03:54;100384.42;;;18.76;35.77
51926;BME280;37952;51.938;15.480;2023-06-05T07:06:57;100381.27;;;18.80;35.89
51926;BME280;37952;51.938;15.480;2023-06-05T07:09:59;100383.93;;;18.84;35.88
51926;BME280;37952;51.938;15.480;2023-06-05T07:13:02;100386.60;;;18.89;36.05
51926;BME280;37952;51.938;15.480;2023-06-05T07:16:05;100382.70;;;18.93;36.09
51926;BME280;37952;51.938;15.480;2023-06-05T07:19:08;100380.34;;;18.97;36.30
51926;BME280;37952;51.938;15.480;2023-06-05T07:22:10;100383.35;;;19.01;36.59
51926;BME280;37952;51.938;15.480;2023-06-05T07:25:13;100378.36;;;19.06;36.89
51926;BME280;37952;51.938;15.480;2023-06-05T07:28:18;100379.66;;;19.09;37.18
51926;BME280;37952;51.938;15.480;2023-06-05T07:31:21;100383.20;;;19.12;37.19
51926;BME280;37952;51.938;15.480;2023-06-05T07:34:25;100381.41;;;19.14;37.37
51926;BME280;37952;51.938;15.480;2023-06-05T07:37:28;100380.68;;;19.17;37.64
51926;BME280;37952;51.938;15.480;2023-06-05T07:40:31;100385.55;;;19.18;37.74
51926;BME280;37952;51.938;15.480;2023-06-05T07:43:34;100386.16;;;19.21;37.89
51926;BME280;37952;51.938;15.480;2023-06-05T07:46:39;100384.81;;;19.24;37.78
51926;BME280;37952;51.938;15.480;2023-06-05T07:49:43;100386.35;;;19.30;37.92
51926;BME280;37952;51.938;15.480;2023-06-05T07:52:45;100386.65;;;19.32;37.88
51926;BME280;37952;51.938;15.480;2023-06-05T07:55:48;100390.21;;;19.37;37.75
51926;BME280;37952;51.938;15.480;2023-06-05T07:58:53;100387.13;;;19.39;37.81
51926;BME280;37952;51.938;15.480;2023-06-05T08:01:55;100387.27;;;19.42;37.67
51926;BME280;37952;51.938;15.480;2023-06-05T08:04:58;100387.67;;;19.45;37.59
51926;BME280;37952;51.938;15.480;2023-06-05T08:08:02;100388.08;;;19.49;37.45
51926;BME280;37952;51.938;15.480;2023-06-05T08:11:05;100389.23;;;19.52;37.31
51926;BME280;37952;51.938;15.480;2023-06-05T08:14:08;100385.08;;;19.55;37.28
51926;BME280;37952;51.938;15.480;2023-06-05T08:17:11;100383.51;;;19.58;37.27
51926;BME280;37952;51.938;15.480;2023-06-05T08:20:14;100387.10;;;19.62;37.12
51926;BME280;37952;51.938;15.480;2023-06-05T08:23:17;100385.16;;;19.66;36.93
51926;BME280;37952;51.938;15.480;2023-06-05T08:26:20;100381.64;;;19.69;37.01
51926;BME280;37952;51.938;15.480;2023-06-05T08:29:24;100382.22;;;19.73;36.86
51926;BME280;37952;51.938;15.480;2023-06-05T08:32:27;100380.30;;;19.78;36.77
51926;BME280;37952;51.938;15.480;2023-06-05T08:35:29;100375.08;;;19.82;36.33
51926;BME280;37952;51.938;15.480;2023-06-05T08:38:33;100377.48;;;19.87;35.97
51926;BME280;37952;51.938;15.480;2023-06-05T08:41:36;100374.73;;;19.92;35.77
51926;BME280;37952;51.938;15.480;2023-06-05T08:44:40;100374.79;;;19.98;35.64
51926;BME280;37952;51.938;15.480;2023-06-05T08:48:02;100374.63;;;20.02;35.49
51926;BME280;37952;51.938;15.480;2023-06-05T08:51:06;100373.92;;;20.06;35.28
51926;BME280;37952;51.938;15.480;2023-06-05T08:54:13;100367.96;;;20.10;35.26
51926;BME280;37952;51.938;15.480;2023-06-05T08:57:17;100367.94;;;20.15;35.13
51926;BME280;37952;51.938;15.480;2023-06-05T09:00:21;100367.73;;;20.19;35.01
51926;BME280;37952;51.938;15.480;2023-06-05T09:03:25;100363.98;;;20.23;34.99
51926;BME280;37952;51.938;15.480;2023-06-05T09:06:27;100365.13;;;20.26;34.78
51926;BME280;37952;51.938;15.480;2023-06-05T09:09:31;100367.53;;;20.29;34.65
51926;BME280;37952;51.938;15.480;2023-06-05T09:12:58;100374.56;;;20.34;34.66
51926;BME280;37952;51.938;15.480;2023-06-05T09:16:00;100373.45;;;20.38;34.57
51926;BME280;37952;51.938;15.480;2023-06-05T09:19:04;100370.06;;;20.42;34.72
51926;BME280;37952;51.938;15.480;2023-06-05T09:22:07;100365.50;;;20.47;34.69
51926;BME280;37952;51.938;15.480;2023-06-05T09:25:11;100360.67;;;20.53;34.72
51926;BME280;37952;51.938;15.480;2023-06-05T09:28:17;100358.90;;;20.59;34.20
51926;BME280;37952;51.938;15.480;2023-06-05T09:31:20;100361.73;;;20.67;34.01
51926;BME280;37952;51.938;15.480;2023-06-05T09:34:25;100361.77;;;20.74;33.78
51926;BME280;37952;51.938;15.480;2023-06-05T09:37:33;100357.63;;;20.80;33.54
51926;BME280;37952;51.938;15.480;2023-06-05T09:40:38;100352.17;;;20.86;33.45
51926;BME280;37952;51.938;15.480;2023-06-05T09:43:41;100350.65;;;20.94;33.44
51926;BME280;37952;51.938;15.480;2023-06-05T09:50:04;100349.92;;;21.05;32.87
51926;BME280;37952;51.938;15.480;2023-06-05T09:53:13;100347.68;;;21.10;32.81
51926;BME280;37952;51.938;15.480;2023-06-05T09:56:18;100341.52;;;21.12;32.59
51926;BME280;37952;51.938;15.480;2023-06-05T09:59:21;100330.05;;;21.14;32.39
51926;BME280;37952;51.938;15.480;2023-06-05T10:02:33;100334.59;;;21.16;32.40
51926;BME280;37952;51.938;15.480;2023-06-05T10:05:37;100334.55;;;21.18;32.04
51926;BME280;37952;51.938;15.480;2023-06-05T10:08:41;100327.83;;;21.19;32.10
51926;BME280;37952;51.938;15.480;2023-06-05T10:11:47;100317.73;;;21.19;31.87
51926;BME280;37952;51.938;15.480;2023-06-05T10:14:51;100315.70;;;21.20;31.71
51926;BME280;37952;51.938;15.480;2023-06-05T10:17:56;100314.73;;;21.21;31.63
51926;BME280;37952;51.938;15.480;2023-06-05T10:20:59;100307.80;;;21.24;31.58
51926;BME280;37952;51.938;15.480;2023-06-05T10:24:05;100305.02;;;21.27;31.63
51926;BME280;37952;51.938;15.480;2023-06-05T10:27:12;100301.05;;;21.29;31.41
51926;BME280;37952;51.938;15.480;2023-06-05T10:30:54;100301.16;;;21.33;31.57
51926;BME280;37952;51.938;15.480;2023-06-05T10:34:20;100296.05;;;21.38;31.39
51926;BME280;37952;51.938;15.480;2023-06-05T10:38:04;100293.73;;;21.43;31.68
51926;BME280;37952;51.938;15.480;2023-06-05T10:41:12;100289.95;;;21.47;31.72
51926;BME280;37952;51.938;15.480;2023-06-05T10:44:14;100285.61;;;21.52;31.99
51926;BME280;37952;51.938;15.480;2023-06-05T10:50:36;100288.06;;;21.61;32.60
51926;BME280;37952;51.938;15.480;2023-06-05T10:53:44;100295.23;;;21.61;33.68
51926;BME280;37952;51.938;15.480;2023-06-05T11:00:05;100284.67;;;21.61;33.16
51926;BME280;37952;51.938;15.480;2023-06-05T11:03:14;100286.02;;;21.63;33.08
51926;BME280;37952;51.938;15.480;2023-06-05T11:06:17;100282.66;;;21.65;33.04
51926;BME280;37952;51.938;15.480;2023-06-05T11:09:19;100285.23;;;21.68;32.87
51926;BME280;37952;51.938;15.480;2023-06-05T11:12:22;100283.52;;;21.71;32.99
51926;BME280;37952;51.938;15.480;2023-06-05T11:18:33;100277.05;;;21.80;33.75
51926;BME280;37952;51.938;15.480;2023-06-05T11:22:08;100276.05;;;21.89;34.80
51926;BME280;37952;51.938;15.480;2023-06-05T11:28:39;100268.70;;;22.14;34.02
51926;BME280;37952;51.938;15.480;2023-06-05T11:31:43;100272.33;;;22.30;33.59
51926;BME280;37952;51.938;15.480;2023-06-05T11:34:46;100271.41;;;22.39;33.52
51926;BME280;37952;51.938;15.480;2023-06-05T11:38:06;100272.77;;;22.43;32.86
51926;BME280;37952;51.938;15.480;2023-06-05T11:41:09;100274.39;;;22.48;32.81
51926;BME280;37952;51.938;15.480;2023-06-05T11:44:16;100269.89;;;22.52;32.69
51926;BME280;37952;51.938;15.480;2023-06-05T11:47:32;100269.94;;;22.55;32.37
51926;BME280;37952;51.938;15.480;2023-06-05T11:50:37;100260.15;;;22.59;32.57
51926;BME280;37952;51.938;15.480;2023-06-05T11:53:45;100257.83;;;22.64;32.41
51926;BME280;37952;51.938;15.480;2023-06-05T11:56:49;100251.11;;;22.68;32.52
51926;BME280;37952;51.938;15.480;2023-06-05T11:59:55;100242.64;;;22.74;32.43
51926;BME280;37952;51.938;15.480;2023-06-05T12:02:58;100241.92;;;22.81;32.06
51926;BME280;37952;51.938;15.480;2023-06-05T12:06:02;100248.17;;;22.91;31.44
51926;BME280;37952;51.938;15.480;2023-06-05T12:09:09;100246.59;;;23.02;31.40
51926;BME280;37952;51.938;15.480;2023-06-05T12:12:13;100241.82;;;23.07;31.25
51926;BME280;37952;51.938;15.480;2023-06-05T12:15:17;100230.34;;;23.14;31.06
51926;BME280;37952;51.938;15.480;2023-06-05T12:18:20;100228.80;;;23.22;31.08
51926;BME280;37952;51.938;15.480;2023-06-05T12:21:24;100229.42;;;23.30;30.91
51926;BME280;37952;51.938;15.480;2023-06-05T12:24:28;100224.55;;;23.40;30.62
51926;BME280;37952;51.938;15.480;2023-06-05T12:27:30;100222.30;;;23.53;30.34
51926;BME280;37952;51.938;15.480;2023-06-05T12:30:40;100220.09;;;23.65;30.06
51926;BME280;37952;51.938;15.480;2023-06-05T12:33:48;100214.98;;;23.74;29.75
51926;BME280;37952;51.938;15.480;2023-06-05T12:36:51;100216.73;;;23.83;29.74
51926;BME280;37952;51.938;15.480;2023-06-05T12:39:54;100214.55;;;23.81;29.61
51926;BME280;37952;51.938;15.480;2023-06-05T12:42:57;100208.73;;;23.82;29.59
51926;BME280;37952;51.938;15.480;2023-06-05T12:45:59;100196.20;;;23.84;29.64
51926;BME280;37952;51.938;15.480;2023-06-05T12:49:04;100198.29;;;23.98;29.80
51926;BME280;37952;51.938;15.480;2023-06-05T12:52:08;100200.42;;;24.10;29.66
51926;BME280;37952;51.938;15.480;2023-06-05T12:55:11;100201.17;;;24.25;28.41
51926;BME280;37952;51.938;15.480;2023-06-05T12:58:14;100198.61;;;24.41;28.86
51926;BME280;37952;51.938;15.480;2023-06-05T13:01:17;100194.29;;;24.57;28.75
51926;BME280;37952;51.938;15.480;2023-06-05T13:04:20;100198.50;;;24.76;28.61
51926;BME280;37952;51.938;15.480;2023-06-05T13:07:23;100185.70;;;24.91;28.61
51926;BME280;37952;51.938;15.480;2023-06-05T13:10:26;100184.35;;;25.04;28.33
51926;BME280;37952;51.938;15.480;2023-06-05T13:13:28;100177.10;;;25.17;28.27
51926;BME280;37952;51.938;15.480;2023-06-05T13:16:32;100176.11;;;25.35;28.12
51926;BME280;37952;51.938;15.480;2023-06-05T13:19:35;100178.11;;;25.49;27.83
51926;BME280;37952;51.938;15.480;2023-06-05T13:22:38;100169.61;;;25.58;27.69
51926;BME280;37952;51.938;15.480;2023-06-05T13:25:41;100168.98;;;25.75;27.70
51926;BME280;37952;51.938;15.480;2023-06-05T13:28:44;100169.50;;;25.90;27.35
51926;BME280;37952;51.938;15.480;2023-06-05T13:31:47;100172.37;;;26.10;27.11
51926;BME280;37952;51.938;15.480;2023-06-05T13:34:50;100169.70;;;26.28;26.93
51926;BME280;37952;51.938;15.480;2023-06-05T13:37:53;100164.88;;;26.46;26.66
51926;BME280;37952;51.938;15.480;2023-06-05T13:40:56;100162.84;;;26.67;26.26
51926;BME280;37952;51.938;15.480;2023-06-05T13:43:59;100163.98;;;27.01;25.99
51926;BME280;37952;51.938;15.480;2023-06-05T13:47:02;100161.52;;;27.56;25.75
51926;BME280;37952;51.938;15.480;2023-06-05T13:50:06;100151.39;;;27.83;25.45
51926;BME280;37952;51.938;15.480;2023-06-05T13:53:09;100147.59;;;28.04;25.08
51926;BME280;37952;51.938;15.480;2023-06-05T13:56:12;100155.02;;;28.25;24.68
51926;BME280;37952;51.938;15.480;2023-06-05T13:59:15;100145.46;;;28.52;24.52
51926;BME280;37952;51.938;15.480;2023-06-05T14:02:18;100146.56;;;28.84;23.57
51926;BME280;37952;51.938;15.480;2023-06-05T14:05:21;100145.29;;;28.89;23.44
51926;BME280;37952;51.938;15.480;2023-06-05T14:08:23;100146.58;;;28.86;23.10
51926;BME280;37952;51.938;15.480;2023-06-05T14:11:26;100146.13;;;28.73;23.23
51926;BME280;37952;51.938;15.480;2023-06-05T14:14:29;100151.12;;;28.53;23.19
51926;BME280;37952;51.938;15.480;2023-06-05T14:17:32;100151.42;;;28.29;22.74
51926;BME280;37952;51.938;15.480;2023-06-05T14:20:35;100147.39;;;28.06;23.37
51926;BME280;37952;51.938;15.480;2023-06-05T14:23:38;100146.92;;;27.84;23.06
51926;BME280;37952;51.938;15.480;2023-06-05T14:26:42;100147.25;;;27.57;23.72
51926;BME280;37952;51.938;15.480;2023-06-05T14:29:45;100148.61;;;27.36;24.00
51926;BME280;37952;51.938;15.480;2023-06-05T14:32:48;100140.88;;;27.16;24.01
51926;BME280;37952;51.938;15.480;2023-06-05T14:35:55;100135.68;;;27.01;24.34
51926;BME280;37952;51.938;15.480;2023-06-05T14:38:58;100141.08;;;26.84;24.47
51926;BME280;37952;51.938;15.480;2023-06-05T14:42:01;100137.89;;;26.67;24.54
51926;BME280;37952;51.938;15.480;2023-06-05T14:45:04;100132.63;;;26.52;24.70
51926;BME280;37952;51.938;15.480;2023-06-05T14:48:07;100136.63;;;26.37;24.61
51926;BME280;37952;51.938;15.480;2023-06-05T14:51:12;100129.71;;;26.18;24.54
51926;BME280;37952;51.938;15.480;2023-06-05T14:54:14;100131.70;;;26.03;24.73
51926;BME280;37952;51.938;15.480;2023-06-05T14:57:17;100126.52;;;25.92;25.02
51926;BME280;37952;51.938;15.480;2023-06-05T15:00:20;100125.77;;;25.80;24.86
51926;BME280;37952;51.938;15.480;2023-06-05T15:03:23;100129.73;;;25.68;24.88
51926;BME280;37952;51.938;15.480;2023-06-05T15:06:26;100127.64;;;25.57;25.03
51926;BME280;37952;51.938;15.480;2023-06-05T15:09:30;100122.91;;;25.50;25.24
51926;BME280;37952;51.938;15.480;2023-06-05T15:12:33;100128.02;;;25.42;25.11
51926;BME280;37952;51.938;15.480;2023-06-05T15:15:36;100126.90;;;25.33;25.39
51926;BME280;37952;51.938;15.480;2023-06-05T15:18:40;100124.09;;;25.26;25.19
51926;BME280;37952;51.938;15.480;2023-06-05T15:21:42;100122.45;;;25.23;25.52
51926;BME280;37952;51.938;15.480;2023-06-05T15:24:47;100123.27;;;25.22;25.60
51926;BME280;37952;51.938;15.480;2023-06-05T15:27:50;100126.98;;;25.20;25.55
51926;BME280;37952;51.938;15.480;2023-06-05T15:30:53;100123.95;;;25.18;25.62
51926;BME280;37952;51.938;15.480;2023-06-05T15:33:56;100120.97;;;25.14;25.73
51926;BME280;37952;51.938;15.480;2023-06-05T15:36:59;100120.27;;;25.12;25.71
51926;BME280;37952;51.938;15.480;2023-06-05T15:40:02;100121.46;;;25.08;25.63
51926;BME280;37952;51.938;15.480;2023-06-05T15:43:09;100118.05;;;25.04;25.75
51926;BME280;37952;51.938;15.480;2023-06-05T15:46:15;100121.13;;;25.02;25.81
51926;BME280;37952;51.938;15.480;2023-06-05T15:49:18;100113.42;;;25.02;26.08
51926;BME280;37952;51.938;15.480;2023-06-05T15:52:21;100113.17;;;25.04;26.09
51926;BME280;37952;51.938;15.480;2023-06-05T15:55:24;100110.72;;;25.05;26.01
51926;BME280;37952;51.938;15.480;2023-06-05T15:58:27;100111.55;;;25.02;25.81
51926;BME280;37952;51.938;15.480;2023-06-05T16:01:30;100111.66;;;24.97;25.83
51926;BME280;37952;51.938;15.480;2023-06-05T16:04:33;100110.74;;;24.94;25.90
51926;BME280;37952;51.938;15.480;2023-06-05T16:07:36;100108.73;;;24.94;25.98
51926;BME280;37952;51.938;15.480;2023-06-05T16:10:39;100105.40;;;24.93;26.20